createdAt,value
2023-01-05T00:04:59.787Z,3.15
2023-01-05T00:10:01.265Z,3.03
2023-01-05T00:15:21.441Z,2.95
2023-01-05T00:20:43.272Z,3.00
2023-01-05T00:25:44.795Z,3.30
2023-01-05T00:30:47.314Z,2.50
2023-01-05T00:35:48.854Z,2.55
2023-01-05T00:40:50.357Z,2.63
2023-01-05T00:45:51.907Z,2.60
2023-01-05T00:50:53.403Z,2.10
2023-01-05T00:56:00.975Z,2.58
2023-01-05T01:01:09.186Z,2.15
2023-01-05T01:06:10.730Z,2.85
2023-01-05T01:11:12.935Z,3.42
2023-01-05T01:16:15.879Z,2.35
2023-01-05T01:21:17.728Z,2.80
2023-01-05T01:26:19.757Z,2.95
2023-01-05T01:31:21.282Z,3.08
2023-01-05T01:36:22.915Z,2.70
2023-01-05T01:41:24.370Z,3.17
2023-01-05T01:46:27.333Z,2.75
2023-01-05T01:51:31.956Z,2.63
2023-01-05T02:01:40.869Z,2.50
2023-01-05T02:06:42.469Z,2.53
2023-01-05T02:12:03.857Z,1.63
2023-01-05T02:17:08.187Z,3.33
2023-01-05T02:22:18.900Z,2.33
2023-01-05T02:27:37.630Z,1.80
2023-01-05T02:33:14.734Z,2.35
2023-01-05T02:38:42.476Z,2.97
2023-01-05T02:43:45.450Z,2.85
2023-01-05T02:48:51.825Z,2.60
2023-01-05T02:54:05.455Z,5.18
2023-01-05T02:59:20.099Z,3.27
2023-01-05T03:04:27.971Z,2.72
2023-01-05T03:09:36.701Z,3.78
2023-01-05T03:14:42.511Z,2.97
2023-01-05T03:19:46.137Z,3.08
2023-01-05T03:25:06.765Z,2.20
2023-01-05T03:30:28.042Z,2.38
2023-01-05T03:35:35.018Z,2.65
2023-01-05T03:40:39.266Z,2.47
2023-01-05T03:45:44.328Z,4.38
2023-01-05T03:50:45.979Z,3.15
2023-01-05T03:55:47.517Z,3.30
2023-01-05T04:00:49.046Z,2.28
2023-01-05T04:05:50.544Z,2.55
2023-01-05T04:10:56.008Z,2.65
2023-01-05T04:15:57.483Z,3.08
2023-01-05T04:20:59.021Z,2.45
2023-01-05T04:26:01.000Z,3.42
2023-01-05T04:31:02.916Z,2.92
2023-01-05T04:36:04.724Z,3.15
2023-01-05T04:41:06.317Z,1.85
2023-01-05T04:46:08.404Z,2.92
2023-01-05T04:51:09.942Z,2.05
2023-01-05T04:56:11.516Z,2.53
2023-01-05T05:01:13.132Z,2.90
2023-01-05T05:06:16.787Z,2.00
2023-01-05T05:11:18.313Z,2.60
2023-01-05T05:16:19.881Z,4.55
2023-01-05T05:21:21.516Z,2.67
2023-01-05T05:26:23.034Z,2.78
2023-01-05T05:31:24.675Z,2.33
2023-01-05T05:36:26.151Z,3.35
2023-01-05T05:41:27.650Z,2.78
2023-01-05T05:46:29.892Z,4.30
2023-01-05T05:51:32.844Z,3.15
2023-01-05T05:56:34.472Z,3.95
2023-01-05T06:01:35.984Z,3.72
2023-01-05T06:06:37.617Z,4.13
2023-01-05T06:11:39.059Z,4.20
2023-01-05T06:16:40.728Z,4.05
2023-01-05T06:21:42.274Z,2.92
2023-01-05T06:26:43.934Z,3.00
2023-01-05T06:31:45.500Z,4.20
2023-01-05T06:36:47.078Z,2.58
2023-01-05T06:41:48.529Z,2.67
2023-01-05T06:46:50.055Z,3.00
2023-01-05T06:51:51.523Z,2.60
2023-01-05T06:56:53.024Z,2.90
2023-01-05T07:01:54.693Z,2.60
2023-01-05T07:06:56.406Z,0.98
2023-01-05T07:11:57.826Z,1.02
2023-01-05T07:16:59.550Z,0.80
2023-01-05T07:22:01.067Z,0.60
2023-01-05T07:27:07.740Z,0.50
2023-01-05T07:32:10.828Z,0.63
2023-01-05T07:37:12.434Z,0.85
2023-01-05T07:42:14.170Z,0.85
2023-01-05T07:47:19.022Z,0.70
2023-01-05T07:52:20.470Z,0.70
2023-01-05T07:57:21.880Z,0.90
2023-01-05T08:02:23.373Z,0.85
2023-01-05T08:07:24.950Z,0.80
2023-01-05T08:12:28.815Z,0.90
2023-01-05T08:17:30.282Z,1.02
2023-01-05T08:22:31.736Z,1.00
2023-01-05T08:27:34.882Z,1.03
2023-01-05T08:32:36.306Z,1.35
2023-01-05T08:37:37.803Z,1.20
2023-01-05T08:42:40.699Z,1.30
2023-01-05T08:47:42.238Z,1.58
2023-01-05T08:52:43.674Z,1.00
2023-01-05T08:57:45.174Z,1.10
2023-01-05T09:02:46.852Z,0.98
2023-01-05T09:07:48.409Z,0.93
2023-01-05T09:12:49.931Z,1.95
2023-01-05T09:17:51.454Z,0.77
2023-01-05T09:22:52.982Z,1.00
2023-01-05T09:27:54.444Z,1.05
2023-01-05T09:32:55.931Z,1.15
2023-01-05T09:37:57.444Z,0.73
2023-01-05T09:42:58.968Z,0.73
2023-01-05T09:48:01.129Z,1.70
2023-01-05T09:53:02.653Z,1.70
2023-01-05T09:58:26.242Z,1.25
2023-01-05T10:04:02.351Z,1.10
2023-01-05T10:08:55.093Z,1.60
2023-01-05T10:14:05.029Z,1.30
2023-01-05T10:19:13.194Z,1.13
2023-01-05T10:24:32.692Z,1.10
2023-01-05T10:29:44.902Z,1.20
2023-01-05T10:34:46.339Z,1.35
2023-01-05T10:40:32.025Z,1.77
2023-01-05T10:45:34.675Z,1.05
2023-01-05T10:50:42.129Z,1.27
2023-01-05T10:56:06.400Z,0.82
2023-01-05T11:06:32.540Z,1.10
2023-01-05T11:11:34.597Z,2.00
2023-01-05T11:16:38.253Z,1.40
2023-01-05T11:21:44.218Z,1.40
2023-01-05T11:26:53.417Z,1.40
2023-01-05T11:32:07.116Z,0.85
2023-01-05T11:37:11.635Z,1.03
2023-01-05T11:42:25.300Z,1.40
2023-01-05T11:47:37.772Z,1.60
2023-01-05T11:52:50.026Z,1.20
2023-01-05T11:57:59.825Z,1.02
2023-01-05T12:03:22.787Z,0.75
2023-01-05T12:08:27.887Z,1.48
2023-01-05T12:14:09.021Z,1.10
2023-01-05T12:19:18.657Z,1.08
2023-01-05T12:24:51.230Z,0.75
2023-01-05T12:36:00.423Z,0.88
2023-01-05T12:41:36.042Z,0.70
2023-01-05T12:46:59.324Z,1.00
2023-01-05T12:52:17.436Z,1.02
2023-01-05T12:57:29.402Z,1.25
2023-01-05T13:02:44.970Z,0.98
2023-01-05T13:07:46.456Z,0.88
2023-01-05T13:12:54.285Z,0.75
2023-01-05T13:17:58.968Z,0.98
2023-01-05T13:23:16.354Z,0.80
2023-01-05T13:28:20.517Z,0.80
2023-01-05T13:39:29.398Z,0.85
2023-01-05T13:45:04.173Z,1.50
2023-01-05T13:50:21.925Z,0.98
2023-01-05T13:55:26.698Z,1.20
2023-01-05T14:00:36.953Z,0.85
2023-01-05T14:05:50.900Z,0.77
2023-01-05T14:11:10.372Z,1.10
2023-01-05T14:16:34.049Z,0.98
2023-01-05T14:21:51.157Z,1.20
2023-01-05T14:27:09.301Z,0.98
2023-01-05T14:32:29.770Z,1.30
2023-01-05T14:37:51.823Z,1.10
2023-01-05T14:42:54.202Z,1.55
2023-01-05T14:48:02.851Z,1.08
2023-01-05T14:53:10.118Z,1.10
2023-01-05T14:58:14.508Z,0.90
2023-01-05T15:03:40.870Z,1.20
2023-01-05T15:09:00.912Z,1.42
2023-01-05T15:14:34.833Z,1.48
2023-01-05T15:20:01.348Z,1.92
2023-01-05T15:25:49.254Z,4.82
2023-01-05T15:31:33.382Z,4.35
2023-01-05T15:36:51.805Z,3.83
2023-01-05T15:41:56.504Z,2.78
2023-01-05T15:52:00.411Z,6.47
2023-01-05T15:57:02.570Z,5.10
2023-01-05T16:02:22.785Z,4.68
2023-01-05T16:07:24.259Z,5.13
2023-01-05T16:12:26.489Z,7.35
2023-01-05T16:17:31.947Z,6.78
2023-01-05T16:22:36.231Z,12.48
2023-01-05T16:27:43.466Z,11.85
2023-01-05T16:32:56.151Z,9.43
2023-01-05T16:38:09.862Z,8.40
2023-01-05T16:43:29.283Z,10.05
2023-01-05T16:48:40.125Z,11.30
2023-01-05T16:53:52.028Z,10.93
2023-01-05T16:58:53.564Z,9.25
2023-01-05T17:03:55.156Z,10.20
2023-01-05T17:08:59.954Z,9.48
2023-01-05T17:14:02.891Z,9.52
2023-01-05T17:19:16.449Z,8.55
2023-01-05T17:24:17.883Z,8.27
2023-01-05T17:29:22.710Z,7.57
2023-01-05T17:34:24.528Z,8.40
2023-01-05T17:39:26.484Z,6.82
2023-01-05T17:44:30.882Z,4.93
2023-01-05T17:49:32.898Z,4.38
2023-01-05T17:54:34.418Z,5.00
2023-01-05T17:59:35.894Z,5.38
2023-01-05T18:04:37.428Z,7.55
2023-01-05T18:09:39.002Z,6.97
2023-01-05T18:14:40.549Z,6.40
2023-01-05T18:24:49.557Z,7.35
2023-01-05T18:29:51.450Z,5.95
2023-01-05T18:34:52.957Z,5.90
2023-01-05T18:39:54.455Z,6.05
2023-01-05T18:44:56.006Z,6.13
2023-01-05T18:49:58.979Z,7.82
2023-01-05T18:55:01.357Z,7.22
2023-01-05T19:00:04.766Z,5.45
2023-01-05T19:05:06.458Z,5.05
2023-01-05T19:10:08.327Z,3.70
2023-01-05T19:15:10.361Z,4.20
2023-01-05T19:20:11.949Z,4.38
2023-01-05T19:25:14.803Z,4.05
2023-01-05T19:30:17.773Z,3.50
2023-01-05T19:35:19.428Z,4.15
2023-01-05T19:40:21.001Z,5.18
2023-01-05T19:45:22.487Z,3.22
2023-01-05T19:50:23.980Z,2.75
2023-01-05T19:55:25.401Z,3.90
2023-01-05T20:00:26.967Z,3.05
2023-01-05T20:05:28.390Z,3.15
2023-01-05T20:10:29.982Z,3.40
2023-01-05T20:15:33.881Z,3.33
2023-01-05T20:20:35.464Z,4.00
2023-01-05T20:25:37.758Z,4.75
2023-01-05T20:30:39.190Z,3.80
2023-01-05T20:35:41.080Z,3.92
2023-01-05T20:40:42.562Z,3.47
2023-01-05T20:45:44.108Z,3.05
2023-01-05T20:50:46.294Z,2.97
2023-01-05T20:55:51.699Z,3.63
2023-01-05T21:01:10.735Z,3.25
2023-01-05T21:06:15.744Z,4.45
2023-01-05T21:11:19.407Z,3.63
2023-01-05T21:16:34.883Z,3.65
2023-01-05T21:21:37.450Z,4.07
2023-01-05T21:26:39.135Z,4.07
2023-01-05T21:31:40.818Z,4.85
2023-01-05T21:36:45.275Z,4.40
2023-01-05T21:42:07.173Z,5.13
2023-01-05T21:47:08.721Z,5.10
2023-01-05T21:52:29.125Z,4.57
2023-01-05T21:57:30.560Z,4.70
2023-01-05T22:02:32.086Z,5.07
2023-01-05T22:07:33.539Z,5.47
2023-01-05T22:12:34.974Z,5.00
2023-01-05T22:17:36.428Z,5.63
2023-01-05T22:22:37.891Z,5.53
2023-01-05T22:27:39.358Z,6.05
2023-01-05T22:32:40.879Z,5.47
2023-01-05T22:37:42.338Z,7.45
2023-01-05T22:42:43.774Z,7.07
2023-01-05T22:47:45.317Z,7.28
2023-01-05T22:52:46.790Z,7.38
2023-01-05T22:57:48.259Z,8.70
2023-01-05T23:02:50.169Z,7.13
2023-01-05T23:07:52.150Z,7.65
2023-01-05T23:12:53.833Z,7.20
2023-01-05T23:17:55.273Z,7.60
2023-01-05T23:23:15.022Z,7.22
2023-01-05T23:28:18.062Z,8.35
2023-01-05T23:33:21.764Z,6.97
2023-01-05T23:38:24.932Z,7.38
2023-01-05T23:43:28.191Z,8.00
2023-01-05T23:48:30.271Z,8.05
2023-01-05T23:53:31.783Z,9.43
2023-01-05T23:58:33.297Z,8.70
